Latest Weather Observations for Cape Bruny AWS

IDT60901

Issued at 11:11 pm EST Thursday 2 July 2020 (issued every 10 minutes, with the page automatically refreshed every 10 minutes)

About weather observations | Map of Hobart area stations | Latest observations for Hobart area | Other Formats
Station Details ID: 094198 Name: CAPE BRUNY (CAPE BRUNY) Lat: -43.49 Lon: 147.14 Height: 59.7 m
Data from the previous 72 hours. | See also: Recent months at Cape Bruny AWS
Date/Time
EST
Temp
°C
App
Temp
°C
Dew
Point
°C
Rel
Hum
%
Delta-T
°C
Wind Press
QNH
hPa
Press
MSL
hPa
Rain since
9am
mm
Dir  Spd
km/h
Gust
km/h
Spd
kts
Gust
kts
02/11:00pm 7.9 2.7 5.7 86 1.0 WNW 22 28 12 15 1004.8 1004.9 1.2
02/10:30pm 8.9 4.3 5.6 80 1.5 NW 19 35 10 19 1004.7 1004.8 0.4
02/10:00pm 8.6 5.4 5.2 79 1.5 N 11 20 6 11 1004.2 1004.3 0.4
02/09:30pm 9.2 4.3 5.0 75 1.9 NW 20 32 11 17 1004.1 1004.1 0.4
02/09:00pm 9.2 3.2 5.4 77 1.7 NW 26 35 14 19 1003.9 1003.9 0.4
02/08:34pm 9.3 2.6 5.7 78 1.6 WNW 30 48 16 26 1003.4 1003.4 0.4
02/08:30pm 9.2 3.3 5.6 78 1.6 NW 26 39 14 21 1003.4 1003.4 0.4
02/08:00pm 8.9 1.7 5.8 81 1.4 NW 33 41 18 22 1002.8 1002.8 0.4
02/07:30pm 10.0 1.9 5.2 72 2.2 NW 37 50 20 27 1002.5 1002.5 0.2
02/07:00pm 9.8 2.5 5.4 74 2.0 NW 33 48 18 26 1002.2 1002.2 0.2
02/06:30pm 9.3 2.6 5.7 78 1.6 NW 30 39 16 21 1001.7 1001.8 0.2
02/06:00pm 8.9 3.7 5.6 80 1.5 NNW 22 33 12 18 1001.5 1001.6 0.2
02/05:30pm 8.8 3.3 5.7 81 1.4 NNW 24 35 13 19 1001.0 1001.1 0.2
02/05:00pm 9.3 4.1 5.7 78 1.7 NW 22 32 12 17 1000.6 1000.7 0.2
02/04:30pm 10.2 4.9 5.2 71 2.3 NW 22 32 12 17 1000.4 1000.5 0.0
02/04:00pm 11.2 6.3 4.9 65 2.9 NNW 20 33 11 18 1000.1 1000.2 0.0
02/03:30pm 10.7 6.0 5.0 68 2.6 NNW 19 26 10 14 999.8 999.9 0.0
02/03:00pm 11.1 4.8 3.9 61 3.2 NW 26 37 14 20 999.5 999.6 0.0
02/02:30pm 12.1 6.7 4.3 59 3.5 NW 22 32 12 17 999.3 999.4 0.0
02/02:00pm 11.7 5.9 4.4 61 3.3 WNW 24 32 13 17 999.2 999.3 0.0
02/01:54pm 11.4 4.1 5.5 67 2.7 WNW 33 52 18 28 999.1 999.2 0.0
02/01:30pm 11.1 2.5 4.6 64 2.9 WNW 39 50 21 27 998.9 999.0 0.0
02/01:00pm 11.2 1.5 5.9 70 2.5 WNW 46 56 25 30 998.8 998.9 0.0
02/12:30pm 11.4 4.5 6.5 72 2.3 WNW 32 39 17 21 998.6 998.7 0.0
02/12:00pm 10.7 5.7 6.5 75 2.0 WNW 22 32 12 17 998.7 998.8 0.0
02/11:30am 10.0 3.6 6.9 81 1.5 WNW 30 43 16 23 998.7 998.8 0.0
02/11:00am 9.8 4.5 6.7 81 1.5 NW 24 32 13 17 998.6 998.7 0.0
02/10:30am 9.8 4.1 6.5 80 1.5 NW 26 35 14 19 998.3 998.4 0.0
02/10:00am 9.1 4.7 7.5 90 0.8 N 20 26 11 14 998.2 998.3 0.0
02/09:30am 8.9 5.4 7.2 89 0.8 N 15 17 8 9 997.8 997.9 0.0
02/09:00am 8.9 5.3 6.7 86 1.0 NNW 15 17 8 9 998.0 998.1 -
02/08:30am 9.0 4.5 5.9 81 1.4 NW 19 24 10 13 997.9 998.0 -
02/08:00am 8.9 4.9 6.5 85 1.1 WNW 17 22 9 12 998.0 998.1 -
02/07:30am 9.0 4.5 6.8 86 1.0 WNW 20 28 11 15 998.1 998.2 -
02/07:03am 9.4 3.4 7.0 85 1.1 NW 28 46 15 25 998.1 998.2 -
02/07:00am 9.9 5.2 7.7 86 1.1 NW 22 33 12 18 998.1 998.2 -
02/06:30am 10.3 6.9 7.5 83 1.3 N 15 22 8 12 997.6 997.7 -
02/06:00am 11.4 7.4 6.7 73 2.3 NNE 17 24 9 13 997.2 997.3 -
02/05:30am 11.5 7.5 6.6 72 2.3 NE 17 28 9 15 997.1 997.2 -
02/05:00am 11.5 6.9 6.4 71 2.4 NE 20 32 11 17 997.1 997.2 -
02/04:30am 11.7 5.9 6.4 70 2.5 NE 26 39 14 21 997.3 997.4 -
02/04:07am 11.8 5.3 6.3 69 2.6 NE 30 52 16 28 997.2 997.3 -
02/04:00am 12.0 5.1 6.3 68 2.7 NNE 32 44 17 24 997.3 997.4 -
02/03:30am 12.1 7.4 6.2 67 2.8 NNE 20 33 11 18 997.9 998.0 -
02/03:00am 11.5 6.8 6.0 69 2.6 NNE 20 32 11 17 998.6 998.7 -
02/02:30am 11.2 7.0 5.9 70 2.5 NNE 17 28 9 15 999.3 999.4 -
02/02:00am 11.3 7.5 6.0 70 2.5 NNE 15 24 8 13 1000.0 1000.1 -
02/01:30am 11.0 5.6 6.2 72 2.2 NNE 24 35 13 19 1000.2 1000.3 0.0
02/01:00am 11.5 5.9 5.6 67 2.8 NNE 24 39 13 21 1000.5 1000.6 0.0
02/12:30am 11.6 6.9 5.3 65 2.9 NNE 19 30 10 16 1000.5 1000.6 0.0
02/12:00am 11.0 6.2 5.7 70 2.5 NNE 20 35 11 19 1001.3 1001.4 0.0
 
Date/Time
EST
Temp
°C
App
Temp
°C
Dew
Point
°C
Rel
Hum
%
Delta-T
°C
Wind Press
QNH
hPa
Press
MSL
hPa
Rain since
9am
mm
Dir  Spd
km/h
Gust
km/h
Spd
kts
Gust
kts
01/11:30pm 10.7 4.8 5.9 72 2.2 NNE 26 37 14 20 1002.0 1002.0 0.0
01/11:00pm 10.8 4.2 6.0 72 2.2 NNE 30 41 16 22 1002.6 1002.6 0.0
01/10:30pm 10.7 6.2 5.9 72 2.2 NNE 19 28 10 15 1003.1 1003.1 0.0
01/10:00pm 10.9 5.5 6.3 73 2.2 NNE 24 37 13 20 1003.7 1003.7 0.0
01/09:30pm 10.9 5.5 6.3 73 2.2 NNE 24 35 13 19 1003.8 1003.8 0.0
01/09:00pm 11.0 4.4 6.2 72 2.3 NNE 30 39 16 21 1004.0 1004.0 0.0
01/08:30pm 11.1 6.1 6.3 72 2.3 NNE 22 35 12 19 1004.5 1004.6 0.0
01/08:00pm 10.9 6.4 6.3 73 2.2 NNE 19 28 10 15 1005.0 1005.1 0.0
01/07:30pm 10.9 7.2 6.1 72 2.2 NNE 15 26 8 14 1005.6 1005.7 0.0
01/07:00pm 10.9 7.1 5.9 71 2.3 NE 15 22 8 12 1005.7 1005.8 0.0
01/06:30pm 10.7 6.5 5.9 72 2.2 NE 17 28 9 15 1005.9 1006.0 0.0
01/06:00pm 10.7 6.2 6.1 73 2.2 NE 19 30 10 16 1006.1 1006.2 0.0
01/05:30pm 10.8 7.1 6.2 73 2.2 NNE 15 22 8 12 1006.5 1006.6 0.0
01/05:00pm 11.4 7.0 6.5 72 2.3 NNE 19 26 10 14 1006.9 1007.0 0.0
01/04:30pm 11.5 6.5 6.6 72 2.3 NNE 22 33 12 18 1007.1 1007.2 0.0
01/04:00pm 11.7 7.1 6.6 71 2.4 NNE 20 30 11 16 1007.3 1007.4 0.0
01/03:30pm 12.2 8.5 6.5 68 2.7 NNE 15 24 8 13 1007.7 1007.8 0.0
01/03:00pm 13.0 8.6 6.6 65 3.1 NNE 19 26 10 14 1007.9 1008.0 0.0
01/02:30pm 13.3 9.3 6.6 64 3.2 NNE 17 24 9 13 1008.1 1008.2 0.0
01/02:00pm 13.2 9.5 6.5 64 3.2 NNE 15 22 8 12 1008.6 1008.7 0.0
01/01:30pm 13.2 10.4 6.8 65 3.1 NNE 11 17 6 9 1009.1 1009.2 0.0
01/01:00pm 13.0 9.7 6.4 64 3.2 N 13 19 7 10 1009.6 1009.7 0.0
01/12:30pm 12.2 8.4 5.8 65 3.0 NNE 15 26 8 14 1010.1 1010.2 0.0
01/12:00pm 11.5 6.4 6.2 70 2.5 NNE 22 32 12 17 1010.5 1010.6 0.0
01/11:30am 11.4 7.3 6.3 71 2.4 NNE 17 24 9 13 1011.3 1011.4 0.0
01/11:00am 10.9 6.4 5.9 71 2.3 N 19 28 10 15 1011.8 1011.9 0.0
01/10:30am 10.7 6.0 5.9 72 2.2 NNE 20 28 11 15 1011.9 1012.0 0.0
01/10:00am 9.7 4.2 5.7 76 1.8 N 24 33 13 18 1012.1 1012.2 0.0
01/09:30am 8.8 3.6 5.7 81 1.4 N 22 32 12 17 1012.4 1012.5 0.0
01/09:00am 8.1 3.3 5.4 83 1.2 N 20 28 11 15 1012.7 1012.8 0.0
01/08:30am 7.3 2.6 5.3 87 0.9 NNE 19 24 10 13 1012.8 1012.9 0.0
01/08:00am 7.0 2.1 5.0 87 0.9 N 20 24 11 13 1012.9 1013.0 0.0
01/07:30am 6.9 2.5 4.9 87 0.9 NNE 17 26 9 14 1013.0 1013.1 0.0
01/07:00am 6.8 2.4 5.0 88 0.8 N 17 24 9 13 1012.9 1013.0 0.0
01/06:30am 6.5 2.8 4.7 88 0.8 NNE 13 17 7 9 1012.9 1013.0 0.0
01/06:00am 7.2 3.6 4.9 85 1.0 NNE 13 19 7 10 1012.9 1013.0 0.0
01/05:30am 7.4 2.5 5.2 86 1.0 N 20 26 11 14 1012.6 1012.7 0.0
01/05:00am 7.4 2.6 5.5 88 0.9 N 20 26 11 14 1012.8 1012.9 0.0
01/04:30am 7.4 2.8 5.4 87 0.9 N 19 22 10 12 1013.0 1013.1 0.0
01/04:00am 7.7 3.1 5.7 87 0.9 N 19 24 10 13 1013.2 1013.3 0.0
01/03:30am 7.0 3.1 5.2 88 0.8 N 15 20 8 11 1013.3 1013.4 0.0
01/03:00am 7.7 3.5 5.5 86 1.0 N 17 20 9 11 1013.5 1013.6 0.0
01/02:30am 7.8 3.9 5.4 85 1.1 N 15 19 8 10 1013.8 1013.9 0.0
01/02:00am 7.5 2.9 5.6 88 0.9 N 19 20 10 11 1013.8 1013.9 0.0
01/01:30am 7.4 3.5 5.4 87 0.9 NNE 15 19 8 10 1013.9 1014.0 0.0
01/01:00am 7.7 3.5 5.5 86 1.0 N 17 20 9 11 1014.0 1014.1 0.0
01/12:30am 8.1 3.9 5.6 84 1.1 N 17 20 9 11 1014.1 1014.2 0.0
01/12:00am 8.1 3.9 5.6 84 1.1 N 17 22 9 12 1014.2 1014.3 0.0
 
Date/Time
EST
Temp
°C
App
Temp
°C
Dew
Point
°C
Rel
Hum
%
Delta-T
°C
Wind Press
QNH
hPa
Press
MSL
hPa
Rain since
9am
mm
Dir  Spd
km/h
Gust
km/h
Spd
kts
Gust
kts
30/11:30pm 7.9 4.4 5.4 84 1.1 NNE 13 17 7 9 1014.3 1014.4 0.0
30/11:00pm 8.3 4.1 5.8 84 1.1 NNE 17 20 9 11 1014.4 1014.5 0.0
30/10:30pm 8.5 4.3 5.6 82 1.3 N 17 22 9 12 1014.5 1014.6 0.0
30/10:00pm 9.0 5.2 5.6 79 1.5 N 15 19 8 10 1014.5 1014.6 0.0
30/09:30pm 9.2 5.0 5.8 79 1.6 N 17 20 9 11 1014.5 1014.6 0.0
30/09:00pm 8.7 4.5 5.8 82 1.3 N 17 20 9 11 1014.2 1014.3 0.0
30/08:30pm 8.8 6.1 5.4 79 1.5 N 9 13 5 7 1014.5 1014.6 0.0
30/08:00pm 9.0 5.5 5.4 78 1.6 N 13 17 7 9 1014.7 1014.8 0.0
30/07:30pm 9.0 5.5 5.4 78 1.6 N 13 17 7 9 1014.8 1014.9 0.0
30/07:00pm 9.0 5.5 5.4 78 1.6 N 13 19 7 10 1014.8 1014.9 0.0
30/06:30pm 8.7 5.8 4.5 75 1.9 NW 9 11 5 6 1014.9 1015.0 0.0
30/06:00pm 9.5 5.8 4.7 72 2.1 N 13 17 7 9 1014.8 1014.9 0.0
30/05:30pm 8.8 5.1 4.4 74 1.9 NNE 13 19 7 10 1014.4 1014.5 0.0
30/05:00pm 8.8 5.4 4.2 73 2.0 NE 11 15 6 8 1014.6 1014.7 0.0
30/04:30pm 9.1 5.0 4.5 73 2.0 NNE 15 19 8 10 1014.8 1014.9 0.0
30/04:00pm 9.2 5.5 4.4 72 2.1 N 13 19 7 10 1015.1 1015.2 0.0
30/03:30pm 10.2 6.6 4.8 69 2.4 N 13 17 7 9 1015.0 1015.1 0.0
30/03:00pm 11.5 7.6 5.4 66 2.8 NNE 15 26 8 14 1015.0 1015.1 0.0
30/02:30pm 10.8 7.2 5.1 68 2.6 N 13 22 7 12 1015.3 1015.4 0.0
30/02:00pm 11.0 6.3 5.3 68 2.6 N 19 26 10 14 1015.5 1015.6 0.0
30/01:30pm 10.5 5.9 5.5 71 2.3 NNE 19 28 10 15 1015.8 1015.9 0.0
30/01:00pm 10.3 5.8 6.1 75 1.9 NNE 19 32 10 17 1016.0 1016.1 0.0
30/12:30pm 10.1 5.4 6.1 76 1.9 NNE 20 32 11 17 1016.4 1016.5 0.0
30/12:00pm 10.3 5.8 6.1 75 1.9 N 19 33 10 18 1016.7 1016.8 0.0
30/11:30am 9.9 4.9 6.6 80 1.5 N 22 39 12 21 1017.2 1017.3 0.0
30/11:00am 8.9 3.6 6.7 86 1.0 N 24 35 13 19 1017.7 1017.8 0.0
30/10:30am 8.5 3.9 6.6 88 0.9 N 20 30 11 16 1018.1 1018.2 0.0
30/10:00am 8.3 4.7 6.8 90 0.7 N 15 22 8 12 1018.3 1018.4 0.0
30/09:30am 7.7 2.3 6.2 90 0.7 N 24 32 13 17 1018.6 1018.7 0.0
30/09:00am 7.1 0.8 5.9 92 0.5 N 28 37 15 20 1018.7 1018.8 0.4
30/08:30am 6.9 1.4 6.0 94 0.4 N 24 33 13 18 1019.5 1019.5 0.4
30/08:00am 6.4 1.2 5.7 95 0.3 N 22 32 12 17 1019.8 1019.8 0.4
30/07:30am 6.5 1.4 5.8 95 0.3 N 22 30 12 16 1020.1 1020.1 0.4
30/07:00am 6.6 2.1 5.9 95 0.3 N 19 26 10 14 1020.1 1020.1 0.4
30/06:30am 6.5 1.9 5.8 95 0.3 N 19 26 10 14 1020.2 1020.2 0.4
30/06:00am 6.6 2.1 5.9 95 0.3 N 19 26 10 14 1020.4 1020.5 0.2
30/05:30am 6.5 1.7 5.8 95 0.3 NNE 20 26 11 14 1020.6 1020.7 0.2
30/05:00am 6.6 1.9 5.9 95 0.3 N 20 28 11 15 1020.7 1020.8 0.2
30/04:30am 6.8 2.1 6.1 95 0.3 N 20 26 11 14 1021.1 1021.2 0.2
30/04:00am 6.8 1.7 5.9 94 0.4 N 22 30 12 16 1021.3 1021.4 0.2
30/03:30am 7.2 2.6 6.3 94 0.4 N 20 28 11 15 1021.6 1021.7 0.2
30/03:00am 7.4 2.4 6.5 94 0.4 N 22 28 12 15 1021.7 1021.8 0.2
30/02:30am 7.1 2.0 6.2 94 0.4 N 22 28 12 15 1022.0 1022.1 0.2
30/02:00am 7.3 2.2 6.2 93 0.5 N 22 28 12 15 1022.4 1022.5 0.0
30/01:30am 7.4 2.0 6.3 93 0.5 N 24 28 13 15 1022.8 1022.9 0.0
30/01:00am 7.7 2.7 6.6 93 0.5 N 22 26 12 14 1023.0 1023.1 0.0
30/12:30am 7.9 3.0 6.7 92 0.6 N 22 28 12 15 1023.2 1023.3 0.0
30/12:00am 7.9 2.6 6.7 92 0.6 N 24 30 13 16 1023.5 1023.6 0.0
 
Date/Time
EST
Temp
°C
App
Temp
°C
Dew
Point
°C
Rel
Hum
%
Delta-T
°C
Wind Press
QNH
hPa
Press
MSL
hPa
Rain since
9am
mm
Dir  Spd
km/h
Gust
km/h
Spd
kts
Gust
kts
29/11:30pm 8.0 2.7 6.8 92 0.6 N 24 30 13 16 1023.7 1023.8 0.0

Latest Capital City Observations: Canberra | Sydney | Melbourne | Brisbane | Adelaide | Perth | Hobart | Darwin

Other formats

Comma delimited format used in spreadsheet applications
http://www.bom.gov.au/fwo/IDT60901/IDT60901.95967.axf

JavaScript Object Notation format (JSON) in row-major order
http://www.bom.gov.au/fwo/IDT60901/IDT60901.95967.json

Data quality

Most of these data are generated automatically and are frequently updated. Quality checks on data are not normally performed. It is possible for incorrect values to appear. Refer to information at About Latest Weather Observations and please check the disclaimer before using these data.